Time;durP1;ratioP1;P1;durP2;ratioP2;P2;SDS_P1;SDS_P2;PMS_P1;PMS_P2;Temp;Humidity;BMP_temperature;BMP_pressure;BME280_temperature;BME280_humidity;BME280_pressure;Samples;Min_cycle;Max_cycle;Signal;HPM_P1;HPM_P2
2021/07/18 00:00:18;;;;;;;2.05;1.13;;;24.10;62.40;;;;;;4881748;29;20037;-63
2021/07/18 00:02:43;;;;;;;3.47;1.55;;;24.10;62.40;;;;;;4881446;29;20509;-63
2021/07/18 00:05:09;;;;;;;3.42;1.40;;;24.10;62.40;;;;;;4881483;29;20075;-63
2021/07/18 00:07:35;;;;;;;1.92;1.17;;;24.10;62.50;;;;;;4881421;29;20045;-64
2021/07/18 00:10:01;;;;;;;3.05;1.27;;;24.10;62.50;;;;;;4881460;29;20161;-63
2021/07/18 00:12:26;;;;;;;2.10;1.38;;;24.10;62.50;;;;;;4881447;29;20090;-63
2021/07/18 00:14:52;;;;;;;3.78;1.17;;;24.00;62.50;;;;;;4881543;29;20043;-64
2021/07/18 00:17:17;;;;;;;2.38;1.27;;;24.00;62.50;;;;;;4881409;29;20033;-63
2021/07/18 00:19:43;;;;;;;2.60;1.40;;;24.00;62.50;;;;;;4881365;29;20069;-64
2021/07/18 00:22:09;;;;;;;2.33;1.15;;;24.00;62.60;;;;;;4881588;29;20061;-64
2021/07/18 00:24:35;;;;;;;3.80;1.65;;;24.00;62.60;;;;;;4881646;29;20096;-64
2021/07/18 00:27:01;;;;;;;2.30;1.10;;;24.00;62.60;;;;;;4881405;29;20037;-64
2021/07/18 00:29:26;;;;;;;3.00;1.40;;;24.00;62.60;;;;;;4881375;29;20032;-64
2021/07/18 00:31:52;;;;;;;1.77;1.20;;;24.00;62.60;;;;;;4880239;29;20029;-64
2021/07/18 00:34:18;;;;;;;2.60;1.30;;;23.90;62.70;;;;;;4881110;29;20059;-64
2021/07/18 00:36:44;;;;;;;3.38;1.35;;;23.90;62.70;;;;;;4881196;29;20040;-64
2021/07/18 00:39:10;;;;;;;2.63;1.27;;;23.90;62.70;;;;;;4881162;29;20089;-63
2021/07/18 00:41:35;;;;;;;3.08;1.67;;;23.90;62.70;;;;;;4881149;29;20029;-63
2021/07/18 00:44:01;;;;;;;4.28;1.48;;;23.90;62.60;;;;;;4880879;29;20032;-63
2021/07/18 00:46:27;;;;;;;6.45;1.58;;;23.90;62.70;;;;;;4879884;29;20058;-64
2021/07/18 00:48:52;;;;;;;2.63;1.25;;;23.90;62.70;;;;;;4883805;29;20421;-63
2021/07/18 00:51:18;;;;;;;2.20;1.10;;;23.90;62.70;;;;;;4887187;29;20060;-64
2021/07/18 00:53:44;;;;;;;3.15;1.30;;;23.90;62.70;;;;;;4881830;29;20031;-63
2021/07/18 00:56:11;;;;;;;2.78;1.40;;;23.90;62.80;;;;;;4881523;29;20033;-63
2021/07/18 00:58:37;;;;;;;2.55;1.20;;;23.90;62.90;;;;;;4880953;29;20108;-63
2021/07/18 01:01:03;;;;;;;4.40;1.35;;;23.80;62.90;;;;;;4880582;29;20068;-64
2021/07/18 01:03:29;;;;;;;1.67;1.10;;;23.80;62.90;;;;;;4880551;29;20105;-64
2021/07/18 01:05:55;;;;;;;2.17;1.20;;;23.80;62.90;;;;;;4886900;29;20033;-64
2021/07/18 01:08:21;;;;;;;2.45;1.20;;;23.80;62.90;;;;;;4886101;29;20037;-64
2021/07/18 01:10:47;;;;;;;3.60;1.40;;;23.80;62.90;;;;;;4881290;29;20021;-64
2021/07/18 01:13:13;;;;;;;3.17;1.52;;;23.80;62.90;;;;;;4880853;29;20080;-64
2021/07/18 01:15:39;;;;;;;2.58;1.23;;;23.80;62.90;;;;;;4880922;29;20057;-64
2021/07/18 01:18:07;;;;;;;3.53;1.33;;;23.80;62.90;;;;;;4880435;29;20151;-64
2021/07/18 01:20:34;;;;;;;2.17;1.30;;;23.70;62.90;;;;;;4880754;29;20032;-64
2021/07/18 01:23:00;;;;;;;1.88;1.20;;;23.70;63.00;;;;;;4880816;29;20044;-64
2021/07/18 01:25:26;;;;;;;2.90;1.45;;;23.70;63.00;;;;;;4880696;29;20244;-64
2021/07/18 01:27:52;;;;;;;2.60;1.27;;;23.70;63.00;;;;;;4881366;29;20131;-64
2021/07/18 01:30:17;;;;;;;2.33;1.15;;;23.70;63.00;;;;;;4882411;29;20112;-65
2021/07/18 01:32:43;;;;;;;2.33;1.30;;;23.70;63.10;;;;;;4883286;29;20029;-64
2021/07/18 01:35:10;;;;;;;2.75;1.40;;;23.70;63.00;;;;;;4883679;29;20370;-64
2021/07/18 01:37:35;;;;;;;2.55;1.20;;;23.70;63.10;;;;;;4880989;29;20040;-64
2021/07/18 01:40:01;;;;;;;2.35;1.27;;;23.70;63.00;;;;;;4881282;29;20021;-64
2021/07/18 01:42:27;;;;;;;3.40;1.70;;;23.60;63.10;;;;;;4885831;29;20052;-64
2021/07/18 01:44:52;;;;;;;3.03;1.38;;;23.70;63.10;;;;;;4884415;29;20108;-64
2021/07/18 01:47:19;;;;;;;2.38;1.02;;;23.60;63.00;;;;;;4886677;29;20092;-64
2021/07/18 01:49:44;;;;;;;2.53;1.27;;;23.60;63.10;;;;;;4880468;29;20025;-64
2021/07/18 01:52:10;;;;;;;2.85;1.30;;;23.60;63.10;;;;;;4885565;29;20029;-65
2021/07/18 01:54:36;;;;;;;3.72;1.40;;;23.60;63.10;;;;;;4889001;29;20033;-64
2021/07/18 01:57:18;;;;;;;2.20;1.23;;;23.60;63.10;;;;;;4887591;29;20033;-65
2021/07/18 01:59:45;;;;;;;3.25;1.30;;;23.60;63.10;;;;;;4879927;29;20056;-64
2021/07/18 02:02:10;;;;;;;2.38;1.30;;;23.60;63.00;;;;;;4879645;29;20124;-64
2021/07/18 02:04:36;;;;;;;2.75;1.20;;;23.50;63.20;;;;;;4880198;29;20486;-64
2021/07/18 02:07:04;;;;;;;1.50;0.95;;;23.50;63.10;;;;;;4882010;29;20041;-64
2021/07/18 02:09:29;;;;;;;2.72;1.42;;;23.60;63.10;;;;;;4880213;29;20029;-64
2021/07/18 02:11:55;;;;;;;2.25;1.20;;;23.50;63.20;;;;;;4879643;29;20116;-64
2021/07/18 02:14:22;;;;;;;2.38;1.30;;;23.60;63.10;;;;;;4879488;29;20036;-64
2021/07/18 02:16:49;;;;;;;2.20;1.02;;;23.50;63.10;;;;;;4879850;29;20098;-64
2021/07/18 02:19:15;;;;;;;1.88;1.25;;;23.50;63.10;;;;;;4879733;29;20022;-64
2021/07/18 02:21:41;;;;;;;2.10;1.20;;;23.50;63.10;;;;;;4879580;29;20033;-64
2021/07/18 02:24:07;;;;;;;2.30;1.20;;;23.60;63.10;;;;;;4879596;29;20025;-64
2021/07/18 02:26:32;;;;;;;2.25;1.10;;;23.50;63.10;;;;;;4878120;29;20033;-64
2021/07/18 02:28:59;;;;;;;3.05;1.38;;;23.50;63.10;;;;;;4879360;29;20025;-64
2021/07/18 02:31:25;;;;;;;2.33;1.10;;;23.50;63.10;;;;;;4879440;29;20454;-64
2021/07/18 02:33:51;;;;;;;1.92;1.00;;;23.50;63.10;;;;;;4879322;29;20025;-64
2021/07/18 02:36:17;;;;;;;3.45;1.40;;;23.50;63.20;;;;;;4879210;29;20457;-64
2021/07/18 02:38:42;;;;;;;4.03;1.42;;;23.50;63.20;;;;;;4879581;29;20029;-64
2021/07/18 02:41:08;;;;;;;3.40;1.40;;;23.50;63.20;;;;;;4879295;29;20481;-64
2021/07/18 02:43:33;;;;;;;3.30;1.27;;;23.50;63.10;;;;;;4879276;29;20056;-64
2021/07/18 02:45:59;;;;;;;3.33;1.50;;;23.50;63.10;;;;;;4878266;29;20100;-64
2021/07/18 02:48:25;;;;;;;2.85;1.27;;;23.50;63.10;;;;;;4879192;29;20037;-64
2021/07/18 02:50:50;;;;;;;1.65;1.00;;;23.50;63.20;;;;;;4879208;29;20029;-64
2021/07/18 02:53:16;;;;;;;2.50;1.30;;;23.50;63.20;;;;;;4879382;29;20409;-64
2021/07/18 02:55:42;;;;;;;3.22;1.20;;;23.40;63.20;;;;;;4880231;29;20397;-64
2021/07/18 02:58:08;;;;;;;4.32;1.33;;;23.50;63.20;;;;;;4882947;29;20052;-64
2021/07/18 03:00:33;;;;;;;5.28;1.58;;;23.40;63.30;;;;;;4882764;29;20029;-64
2021/07/18 03:02:59;;;;;;;5.03;1.35;;;23.40;63.20;;;;;;4882710;29;20045;-64
2021/07/18 03:05:24;;;;;;;2.53;1.50;;;23.40;63.30;;;;;;4882842;29;20021;-64
2021/07/18 03:07:50;;;;;;;3.20;1.27;;;23.40;63.30;;;;;;4882663;29;20123;-64
2021/07/18 03:10:17;;;;;;;3.42;1.30;;;23.40;63.20;;;;;;4882913;29;20489;-64
2021/07/18 03:12:43;;;;;;;6.20;1.42;;;23.40;63.30;;;;;;4882534;29;20036;-64
2021/07/18 03:15:12;;;;;;;2.67;1.20;;;23.40;63.30;;;;;;4882824;29;20036;-64
2021/07/18 03:17:38;;;;;;;2.65;1.40;;;23.40;63.40;;;;;;4882557;29;20028;-64
2021/07/18 03:20:07;;;;;;;4.50;1.15;;;23.30;63.30;;;;;;4882517;29;20033;-64
2021/07/18 03:22:33;;;;;;;2.58;1.17;;;23.30;63.30;;;;;;4882359;29;20115;-64
2021/07/18 03:25:00;;;;;;;2.08;1.13;;;23.30;63.30;;;;;;4882376;29;20108;-64
2021/07/18 03:27:25;;;;;;;2.00;1.10;;;23.30;63.40;;;;;;4882479;29;20039;-64
2021/07/18 03:29:51;;;;;;;4.32;1.48;;;23.30;63.40;;;;;;4882322;29;20104;-64
2021/07/18 03:32:16;;;;;;;3.85;1.35;;;23.30;63.30;;;;;;4882423;29;20509;-64
2021/07/18 03:34:42;;;;;;;1.60;0.90;;;23.30;63.30;;;;;;4882463;29;20065;-64
2021/07/18 03:37:07;;;;;;;2.03;1.23;;;23.30;63.30;;;;;;4882407;29;20037;-64
2021/07/18 03:39:33;;;;;;;4.13;1.58;;;23.30;63.40;;;;;;4882192;29;20445;-64
2021/07/18 03:41:58;;;;;;;1.98;1.02;;;23.20;63.50;;;;;;4882202;29;20111;-64
2021/07/18 03:44:24;;;;;;;1.63;1.20;;;23.20;63.40;;;;;;4882555;29;20109;-64
2021/07/18 03:46:49;;;;;;;2.00;1.08;;;23.20;63.40;;;;;;4882640;29;20049;-64
2021/07/18 03:49:16;;;;;;;3.13;1.27;;;23.20;63.40;;;;;;4883834;29;20025;-64
2021/07/18 03:51:42;;;;;;;3.17;1.30;;;23.20;63.50;;;;;;4891215;29;20029;-64
2021/07/18 03:54:08;;;;;;;4.40;1.20;;;23.20;63.50;;;;;;4890850;29;20049;-64
2021/07/18 03:56:34;;;;;;;2.47;1.30;;;23.20;63.50;;;;;;4882534;29;20044;-64
2021/07/18 03:58:59;;;;;;;2.17;1.30;;;23.20;63.40;;;;;;4882572;29;20040;-64
2021/07/18 04:01:25;;;;;;;4.20;1.40;;;23.20;63.50;;;;;;4881957;29;20022;-63
2021/07/18 04:03:50;;;;;;;2.22;1.17;;;23.20;63.50;;;;;;4881769;29;20097;-64
2021/07/18 04:06:17;;;;;;;2.33;1.13;;;23.20;63.50;;;;;;4881785;29;20060;-64
2021/07/18 04:08:44;;;;;;;2.72;1.30;;;23.20;63.50;;;;;;4881914;29;20101;-64
2021/07/18 04:11:10;;;;;;;2.38;1.08;;;23.10;63.60;;;;;;4881838;29;20128;-63
2021/07/18 04:13:36;;;;;;;1.98;1.27;;;23.10;63.60;;;;;;4881866;29;20062;-64
2021/07/18 04:16:03;;;;;;;2.50;1.20;;;23.10;63.50;;;;;;4881891;29;20021;-64
2021/07/18 04:18:29;;;;;;;5.35;1.42;;;23.20;63.50;;;;;;4881799;29;20065;-64
2021/07/18 04:20:54;;;;;;;3.28;1.48;;;23.20;63.50;;;;;;4881897;29;20050;-64
2021/07/18 04:23:20;;;;;;;2.65;1.15;;;23.10;63.50;;;;;;4881973;29;20114;-64
2021/07/18 04:25:46;;;;;;;2.58;1.25;;;23.10;63.50;;;;;;4881766;29;20040;-64
2021/07/18 04:28:13;;;;;;;6.07;1.50;;;23.10;63.50;;;;;;4892833;29;20052;-64
2021/07/18 04:30:39;;;;;;;2.60;1.30;;;23.10;63.50;;;;;;4885013;29;20033;-64
2021/07/18 04:33:05;;;;;;;2.40;1.33;;;23.10;63.50;;;;;;4881416;29;20029;-64
2021/07/18 04:35:31;;;;;;;4.90;1.15;;;23.10;63.50;;;;;;4881445;29;20056;-64
2021/07/18 04:37:56;;;;;;;2.45;1.27;;;23.10;63.40;;;;;;4881270;29;20036;-64
2021/07/18 04:40:22;;;;;;;3.10;1.27;;;23.10;63.40;;;;;;4881632;29;20090;-64
2021/07/18 04:42:48;;;;;;;4.10;1.38;;;23.10;63.40;;;;;;4882383;29;20525;-64
2021/07/18 04:45:13;;;;;;;1.90;1.08;;;23.10;63.50;;;;;;4883743;29;20116;-64
2021/07/18 04:47:50;;;;;;;2.53;1.27;;;23.10;63.50;;;;;;4881166;29;20045;-64
2021/07/18 04:50:17;;;;;;;2.83;1.38;;;23.10;63.50;;;;;;4883181;29;20061;-63
2021/07/18 04:52:43;;;;;;;2.08;1.10;;;23.10;63.50;;;;;;4882706;29;20053;-64
2021/07/18 04:55:11;;;;;;;3.22;1.20;;;23.10;63.40;;;;;;4885525;29;20029;-64
2021/07/18 04:57:37;;;;;;;4.55;1.60;;;23.10;63.50;;;;;;4885282;29;20093;-63
2021/07/18 05:00:18;;;;;;;3.15;1.48;;;23.10;63.40;;;;;;4887315;29;20040;-64
2021/07/18 05:02:44;;;;;;;2.22;1.35;;;23.10;63.40;;;;;;4885046;29;20112;-63
2021/07/18 05:05:11;;;;;;;4.05;1.42;;;23.10;63.40;;;;;;4885942;29;20484;-63
2021/07/18 05:07:45;;;;;;;3.75;1.27;;;23.10;63.40;;;;;;4885613;29;20083;-64
2021/07/18 05:10:11;;;;;;;2.45;1.20;;;23.10;63.40;;;;;;4884873;29;20029;-63
2021/07/18 05:12:36;;;;;;;2.15;1.33;;;23.10;63.40;;;;;;4882624;29;20366;-64
2021/07/18 05:15:02;;;;;;;3.05;1.40;;;23.10;63.40;;;;;;4882379;29;20033;-63
2021/07/18 05:17:28;;;;;;;2.25;1.30;;;23.00;63.40;;;;;;4880850;29;20410;-64
2021/07/18 05:19:54;;;;;;;1.80;1.23;;;23.10;63.40;;;;;;4882069;29;20033;-63
2021/07/18 05:22:19;;;;;;;2.60;1.17;;;23.10;63.40;;;;;;4886073;29;20036;-64
2021/07/18 05:24:45;;;;;;;1.90;1.20;;;23.00;63.40;;;;;;4888552;29;20037;-63
2021/07/18 05:27:10;;;;;;;2.65;1.45;;;23.10;63.40;;;;;;4884126;29;20040;-63
2021/07/18 05:29:36;;;;;;;3.50;1.65;;;23.00;63.40;;;;;;4881385;29;20037;-64
2021/07/18 05:32:03;;;;;;;2.80;1.40;;;23.00;63.40;;;;;;4880885;29;20029;-64
2021/07/18 05:34:29;;;;;;;2.78;1.38;;;23.00;63.40;;;;;;4880566;29;20029;-64
2021/07/18 05:36:55;;;;;;;1.88;1.20;;;23.00;63.30;;;;;;4882033;29;20080;-64
2021/07/18 05:39:20;;;;;;;2.67;1.25;;;23.10;63.30;;;;;;4886143;29;20029;-64
2021/07/18 05:41:46;;;;;;;2.10;1.40;;;23.00;63.30;;;;;;4883589;29;20093;-64
2021/07/18 05:44:11;;;;;;;2.92;1.40;;;23.10;63.30;;;;;;4884657;29;20423;-64
2021/07/18 05:46:37;;;;;;;3.63;1.35;;;23.10;63.30;;;;;;4881097;29;20037;-64
2021/07/18 05:49:02;;;;;;;3.67;1.60;;;23.10;63.40;;;;;;4881708;29;20358;-64
2021/07/18 05:51:28;;;;;;;3.15;1.10;;;23.00;63.40;;;;;;4882450;29;20037;-63
2021/07/18 05:53:53;;;;;;;2.38;1.42;;;23.00;63.30;;;;;;4880653;29;20057;-64
2021/07/18 05:56:19;;;;;;;2.60;1.35;;;23.00;63.30;;;;;;4880404;29;20029;-64
2021/07/18 05:58:44;;;;;;;4.35;1.20;;;23.00;63.30;;;;;;4879834;29;20069;-64
2021/07/18 06:01:10;;;;;;;2.33;1.23;;;23.00;63.30;;;;;;4880081;29;20037;-64
2021/07/18 06:03:35;;;;;;;2.83;1.35;;;23.00;63.30;;;;;;4879630;29;20135;-64
2021/07/18 06:06:01;;;;;;;2.97;1.45;;;23.00;63.30;;;;;;4879545;29;20108;-63
2021/07/18 06:08:26;;;;;;;3.13;1.40;;;23.00;63.30;;;;;;4879588;29;20077;-63
2021/07/18 06:10:52;;;;;;;2.45;1.17;;;23.00;63.30;;;;;;4879555;29;20021;-63
2021/07/18 06:13:17;;;;;;;2.42;1.40;;;23.00;63.30;;;;;;4879686;29;20047;-64
2021/07/18 06:15:43;;;;;;;2.63;1.27;;;23.00;63.40;;;;;;4879698;29;20021;-63
2021/07/18 06:18:08;;;;;;;2.30;1.02;;;23.00;63.30;;;;;;4879618;29;20032;-63
2021/07/18 06:20:38;;;;;;;1.95;1.25;;;23.00;63.30;;;;;;4879410;29;20067;-63
2021/07/18 06:23:04;;;;;;;2.53;1.30;;;23.10;63.20;;;;;;4879338;29;20397;-63
2021/07/18 06:25:30;;;;;;;2.42;1.33;;;23.10;63.10;;;;;;4879537;29;20037;-63
2021/07/18 06:27:55;;;;;;;2.35;1.25;;;23.00;63.30;;;;;;4879264;29;20454;-63
2021/07/18 06:30:21;;;;;;;2.13;1.27;;;23.00;63.30;;;;;;4880160;29;20031;-63
2021/07/18 06:32:46;;;;;;;3.58;1.40;;;23.10;63.20;;;;;;4883209;29;20040;-64
2021/07/18 06:35:13;;;;;;;2.78;1.42;;;23.10;63.20;;;;;;4883154;29;20032;-63
2021/07/18 06:37:39;;;;;;;1.90;1.20;;;23.10;63.20;;;;;;4883161;29;20021;-63
2021/07/18 06:40:05;;;;;;;1.88;1.10;;;23.10;63.10;;;;;;4883117;29;20034;-63
2021/07/18 06:42:32;;;;;;;2.30;1.40;;;23.10;63.10;;;;;;4883268;29;20025;-63
2021/07/18 06:45:00;;;;;;;3.55;1.60;;;23.10;63.10;;;;;;4883106;29;20026;-64
2021/07/18 06:47:26;;;;;;;2.70;1.40;;;23.10;63.00;;;;;;4884405;29;20033;-64
2021/07/18 06:49:53;;;;;;;2.22;1.30;;;23.20;63.00;;;;;;4891721;29;20029;-63
2021/07/18 06:52:19;;;;;;;3.08;1.30;;;23.20;63.00;;;;;;4891840;29;20033;-64
2021/07/18 06:54:44;;;;;;;2.67;1.35;;;23.10;63.00;;;;;;4889339;29;20029;-64
2021/07/18 06:57:10;;;;;;;3.22;1.40;;;23.10;62.90;;;;;;4883119;29;20040;-64
2021/07/18 06:59:36;;;;;;;2.05;1.13;;;23.20;62.90;;;;;;4883288;29;20041;-64
2021/07/18 07:02:02;;;;;;;5.57;1.67;;;23.20;62.90;;;;;;4882471;29;20033;-63
2021/07/18 07:04:27;;;;;;;2.33;1.17;;;23.20;62.90;;;;;;4882706;29;20032;-64
2021/07/18 07:06:53;;;;;;;2.28;1.30;;;23.20;62.90;;;;;;4882551;29;20396;-64
2021/07/18 07:09:18;;;;;;;2.00;1.20;;;23.20;62.80;;;;;;4882661;29;20033;-63
2021/07/18 07:11:44;;;;;;;5.32;1.23;;;23.20;62.90;;;;;;4882848;29;20040;-64
2021/07/18 07:14:10;;;;;;;1.90;1.10;;;23.20;62.80;;;;;;4882577;29;20037;-64
2021/07/18 07:16:36;;;;;;;2.40;1.38;;;23.20;62.90;;;;;;4882768;29;20033;-64
2021/07/18 07:19:02;;;;;;;2.60;1.20;;;23.20;62.80;;;;;;4882903;29;20380;-64
2021/07/18 07:21:28;;;;;;;2.95;1.40;;;23.20;62.70;;;;;;4882391;29;20029;-63
2021/07/18 07:23:54;;;;;;;2.50;1.30;;;23.20;62.70;;;;;;4882345;29;20036;-63
2021/07/18 07:26:19;;;;;;;2.28;1.15;;;23.30;62.70;;;;;;4882245;29;20049;-63
2021/07/18 07:28:45;;;;;;;2.33;1.30;;;23.30;62.70;;;;;;4882615;29;20103;-64
2021/07/18 07:31:10;;;;;;;3.63;1.65;;;23.30;62.60;;;;;;4891440;29;20389;-63
2021/07/18 07:33:36;;;;;;;1.92;1.10;;;23.30;62.60;;;;;;4891105;29;20056;-64
2021/07/18 07:36:03;;;;;;;2.78;1.27;;;23.30;62.70;;;;;;4890545;29;20036;-64
2021/07/18 07:38:29;;;;;;;2.47;1.20;;;23.30;62.70;;;;;;4884480;29;20025;-64
2021/07/18 07:40:54;;;;;;;2.22;1.40;;;23.30;62.60;;;;;;4881606;29;20396;-65
2021/07/18 07:43:20;;;;;;;2.58;1.50;;;23.30;62.60;;;;;;4881903;29;20060;-64
2021/07/18 07:45:45;;;;;;;3.53;1.50;;;23.30;62.60;;;;;;4881989;29;20161;-64
2021/07/18 07:48:11;;;;;;;2.70;1.30;;;23.30;62.60;;;;;;4882012;29;20116;-63
2021/07/18 07:50:37;;;;;;;1.92;1.13;;;23.40;62.60;;;;;;4882134;29;20402;-63
2021/07/18 07:53:03;;;;;;;2.65;1.20;;;23.30;62.60;;;;;;4882145;29;20029;-63
2021/07/18 07:55:30;;;;;;;2.67;1.38;;;23.30;62.50;;;;;;4881755;29;20029;-63
2021/07/18 07:57:55;;;;;;;1.38;1.02;;;23.30;62.50;;;;;;4881532;29;20021;-65
2021/07/18 08:00:22;;;;;;;3.83;1.63;;;23.40;62.50;;;;;;4881550;29;20504;-65
2021/07/18 08:02:49;;;;;;;2.75;1.13;;;23.40;62.40;;;;;;4881371;29;20052;-64
2021/07/18 08:05:16;;;;;;;2.65;1.35;;;23.40;62.50;;;;;;4881502;29;20029;-64
2021/07/18 08:07:41;;;;;;;2.55;1.10;;;23.30;62.40;;;;;;4881537;29;20040;-64
2021/07/18 08:10:10;;;;;;;2.22;1.40;;;23.40;62.40;;;;;;4881400;29;20033;-64
2021/07/18 08:12:36;;;;;;;2.95;1.40;;;23.40;62.40;;;;;;4881657;29;20119;-64
2021/07/18 08:15:03;;;;;;;1.65;1.10;;;23.40;62.40;;;;;;4881589;29;20040;-64
2021/07/18 08:17:29;;;;;;;2.13;1.08;;;23.40;62.40;;;;;;4881714;29;20033;-64
2021/07/18 08:19:54;;;;;;;4.97;1.50;;;23.40;62.40;;;;;;4881613;29;20143;-64
2021/07/18 08:22:20;;;;;;;2.85;1.17;;;23.40;62.40;;;;;;4881687;29;20500;-64
2021/07/18 08:24:46;;;;;;;2.88;1.40;;;23.40;62.40;;;;;;4881229;29;20033;-64
2021/07/18 08:27:11;;;;;;;2.17;1.38;;;23.40;62.30;;;;;;4881032;29;20048;-64
2021/07/18 08:29:37;;;;;;;2.78;1.30;;;23.40;62.40;;;;;;4881174;29;20501;-64
2021/07/18 08:32:03;;;;;;;2.20;1.20;;;23.40;62.30;;;;;;4881069;29;20495;-63
2021/07/18 08:34:28;;;;;;;3.60;1.30;;;23.40;62.30;;;;;;4881090;29;20018;-64
2021/07/18 08:36:54;;;;;;;1.85;1.13;;;23.40;62.30;;;;;;4881162;29;20048;-64
2021/07/18 08:39:19;;;;;;;3.30;1.58;;;23.50;62.30;;;;;;4881003;29;20512;-64
2021/07/18 08:41:45;;;;;;;1.98;1.27;;;23.50;62.30;;;;;;4881075;29;20401;-64
2021/07/18 08:44:12;;;;;;;1.95;1.10;;;23.40;62.30;;;;;;4880804;29;20029;-64
2021/07/18 08:46:39;;;;;;;3.13;1.20;;;23.50;62.20;;;;;;4880917;29;20041;-64
2021/07/18 08:49:05;;;;;;;2.67;1.23;;;23.40;62.30;;;;;;4880745;29;20112;-64
2021/07/18 08:51:32;;;;;;;1.70;1.10;;;23.40;62.30;;;;;;4880888;29;20040;-64
2021/07/18 08:53:58;;;;;;;2.55;1.42;;;23.50;62.30;;;;;;4879828;29;20064;-64
2021/07/18 08:56:24;;;;;;;4.05;1.70;;;23.40;62.30;;;;;;4880525;29;20040;-64
2021/07/18 08:58:50;;;;;;;2.55;1.15;;;23.50;62.30;;;;;;4879223;29;20401;-64
2021/07/18 09:01:16;;;;;;;1.90;1.00;;;23.50;62.20;;;;;;4880333;29;20549;-64
2021/07/18 09:03:41;;;;;;;2.00;1.15;;;23.50;62.30;;;;;;4880244;29;20067;-65
2021/07/18 09:06:09;;;;;;;2.83;1.58;;;23.50;62.30;;;;;;4880168;29;20033;-64
2021/07/18 09:08:46;;;;;;;2.80;1.17;;;23.50;62.20;;;;;;4880217;29;20068;-64
2021/07/18 09:11:23;;;;;;;1.95;1.15;;;23.40;62.20;;;;;;4878984;29;20383;-64
2021/07/18 09:13:57;;;;;;;2.55;1.00;;;23.50;62.30;;;;;;4880208;29;20396;-64
2021/07/18 09:16:35;;;;;;;1.50;1.00;;;23.50;62.20;;;;;;4880241;29;20080;-65
2021/07/18 09:19:21;;;;;;;2.47;1.35;;;23.50;62.30;;;;;;4880099;29;20029;-64
2021/07/18 09:21:51;;;;;;;1.98;1.15;;;23.50;62.30;;;;;;4880054;29;20108;-65
2021/07/18 09:24:20;;;;;;;2.10;0.98;;;23.50;62.30;;;;;;4880036;29;20033;-64
2021/07/18 09:27:03;;;;;;;2.75;1.10;;;23.50;62.20;;;;;;4879826;29;20029;-65
2021/07/18 09:29:29;;;;;;;2.08;0.95;;;23.50;62.30;;;;;;4879923;29;20363;-65
2021/07/18 09:32:05;;;;;;;1.85;1.15;;;23.50;62.20;;;;;;4879744;29;20132;-64
2021/07/18 09:34:42;;;;;;;3.63;1.13;;;23.50;62.20;;;;;;4879727;29;20029;-65
2021/07/18 09:37:14;;;;;;;2.22;1.20;;;23.50;62.20;;;;;;4879807;29;20028;-64
2021/07/18 09:39:45;;;;;;;3.78;1.55;;;23.50;62.20;;;;;;4879726;29;20041;-65
2021/07/18 09:42:29;;;;;;;2.58;1.20;;;23.50;62.20;;;;;;4879607;29;20096;-64
2021/07/18 09:44:55;;;;;;;0.93;0.83;;;23.50;62.20;;;;;;4879667;29;20068;-64
2021/07/18 09:47:21;;;;;;;1.63;1.00;;;23.50;62.20;;;;;;4879759;29;20123;-64
2021/07/18 09:49:48;;;;;;;1.38;0.98;;;23.50;62.20;;;;;;4880321;29;20507;-64
2021/07/18 09:52:26;;;;;;;2.75;1.05;;;23.50;62.20;;;;;;4886279;29;20052;-64
2021/07/18 09:54:57;;;;;;;2.25;1.23;;;23.50;62.20;;;;;;4886429;29;20051;-64
2021/07/18 09:57:40;;;;;;;2.80;1.38;;;23.50;62.20;;;;;;4884867;29;20028;-65
2021/07/18 10:00:11;;;;;;;1.80;1.10;;;23.50;62.20;;;;;;4881302;29;20025;-64
2021/07/18 10:02:40;;;;;;;2.40;1.13;;;23.50;62.20;;;;;;4888761;29;20053;-64
2021/07/18 10:05:06;;;;;;;1.77;1.20;;;23.60;62.20;;;;;;4888680;29;20112;-64
2021/07/18 10:07:35;;;;;;;2.45;1.13;;;23.50;62.20;;;;;;4885678;29;20052;-64
2021/07/18 10:10:04;;;;;;;2.00;1.10;;;23.50;62.20;;;;;;4881849;29;20052;-64
2021/07/18 10:12:31;;;;;;;1.60;1.10;;;23.50;62.10;;;;;;4880570;29;20044;-64
2021/07/18 10:14:59;;;;;;;1.70;1.17;;;23.60;62.10;;;;;;4884592;29;20068;-64
2021/07/18 10:17:27;;;;;;;2.38;1.15;;;23.60;62.10;;;;;;4887335;29;20035;-64
2021/07/18 10:19:53;;;;;;;2.60;1.38;;;23.50;62.10;;;;;;4887624;29;20045;-64
2021/07/18 10:22:20;;;;;;;1.95;1.20;;;23.60;62.10;;;;;;4885719;29;20048;-64
2021/07/18 10:24:47;;;;;;;1.88;1.08;;;23.60;62.10;;;;;;4885601;29;20029;-64
2021/07/18 10:27:13;;;;;;;3.80;1.10;;;23.60;62.00;;;;;;4886048;29;20038;-64
2021/07/18 10:29:39;;;;;;;1.92;1.10;;;23.60;62.00;;;;;;4888448;29;20039;-64
2021/07/18 10:32:07;;;;;;;2.47;1.20;;;23.60;62.10;;;;;;4888494;29;20029;-65
2021/07/18 10:34:35;;;;;;;1.83;0.88;;;23.60;62.00;;;;;;4885828;29;20077;-64
2021/07/18 10:37:02;;;;;;;2.80;1.45;;;23.60;62.10;;;;;;4885751;29;20074;-64
2021/07/18 10:39:41;;;;;;;2.60;1.30;;;23.60;62.00;;;;;;4887097;29;20044;-64
2021/07/18 10:42:38;;;;;;;2.10;1.00;;;23.70;62.00;;;;;;4881787;29;20029;-64
2021/07/18 10:45:29;;;;;;;1.48;0.90;;;23.60;62.00;;;;;;4878186;29;20169;-65
2021/07/18 10:48:05;;;;;;;1.95;1.00;;;23.70;62.00;;;;;;4879352;29;20045;-64
2021/07/18 10:50:43;;;;;;;2.08;1.20;;;23.70;62.00;;;;;;4879229;29;20052;-64
2021/07/18 10:53:24;;;;;;;2.70;1.48;;;23.70;62.00;;;;;;4885471;29;20525;-64
2021/07/18 10:55:52;;;;;;;2.88;1.33;;;23.70;61.90;;;;;;4883482;29;20040;-64
2021/07/18 10:58:39;;;;;;;2.50;1.17;;;23.70;61.90;;;;;;4884479;29;20117;-64
2021/07/18 11:01:10;;;;;;;2.72;1.20;;;23.70;61.90;;;;;;4878730;29;20029;-64
2021/07/18 11:03:45;;;;;;;2.00;1.15;;;23.70;61.90;;;;;;4878670;29;20049;-64
2021/07/18 11:06:39;;;;;;;2.08;0.95;;;23.80;61.90;;;;;;4878743;29;20516;-64
2021/07/18 11:09:13;;;;;;;2.07;1.00;;;23.80;61.80;;;;;;4878777;29;20070;-64
2021/07/18 11:11:43;;;;;;;2.90;1.48;;;23.80;61.80;;;;;;4878771;29;20063;-64
2021/07/18 11:14:24;;;;;;;1.90;1.20;;;23.80;61.80;;;;;;4879003;29;20029;-64
2021/07/18 11:16:53;;;;;;;1.83;1.00;;;23.80;61.80;;;;;;4879975;29;20142;-64
2021/07/18 11:19:43;;;;;;;2.08;1.10;;;23.80;61.80;;;;;;4882252;29;20052;-64
2021/07/18 11:22:13;;;;;;;2.95;1.42;;;23.80;61.80;;;;;;4882230;29;20032;-64
2021/07/18 11:24:53;;;;;;;1.92;1.23;;;23.90;61.80;;;;;;4882184;29;20039;-64
2021/07/18 11:27:44;;;;;;;2.08;1.27;;;23.80;61.70;;;;;;4880952;29;20385;-64
2021/07/18 11:30:39;;;;;;;2.17;1.30;;;23.90;61.80;;;;;;4882005;29;20029;-64
2021/07/18 11:33:30;;;;;;;2.90;1.38;;;23.90;61.70;;;;;;4882093;29;20381;-64
2021/07/18 11:35:57;;;;;;;2.70;1.10;;;23.90;61.80;;;;;;4882208;29;20029;-64
2021/07/18 11:38:23;;;;;;;2.88;1.33;;;24.00;61.70;;;;;;4882050;29;20029;-63
2021/07/18 11:40:49;;;;;;;1.90;1.05;;;23.90;61.70;;;;;;4882566;29;20062;-63
2021/07/18 11:43:15;;;;;;;1.92;1.10;;;24.00;61.70;;;;;;4881798;29;20036;-63
2021/07/18 11:45:40;;;;;;;1.80;1.10;;;24.00;61.60;;;;;;4882929;29;20037;-63
2021/07/18 11:48:07;;;;;;;1.27;0.90;;;24.00;61.60;;;;;;4883185;29;20040;-63
2021/07/18 11:50:32;;;;;;;3.03;1.30;;;24.10;61.60;;;;;;4882988;29;20446;-63
2021/07/18 11:53:01;;;;;;;3.20;1.25;;;24.10;61.50;;;;;;4881709;29;20036;-63
2021/07/18 11:55:28;;;;;;;2.55;1.10;;;24.10;61.50;;;;;;4881741;29;20053;-63
2021/07/18 11:57:54;;;;;;;2.03;1.15;;;24.20;61.40;;;;;;4881597;29;20103;-63
2021/07/18 12:00:19;;;;;;;1.60;1.02;;;24.20;61.40;;;;;;4881720;29;20060;-63
2021/07/18 12:02:46;;;;;;;1.55;0.82;;;24.20;61.40;;;;;;4881387;29;20442;-64
2021/07/18 12:05:12;;;;;;;3.25;1.23;;;24.20;61.40;;;;;;4881395;29;20477;-64
2021/07/18 12:07:38;;;;;;;2.15;1.25;;;24.20;61.30;;;;;;4881752;29;20124;-64
2021/07/18 12:10:05;;;;;;;1.95;1.02;;;24.30;61.30;;;;;;4880383;29;20084;-64
2021/07/18 12:12:31;;;;;;;2.50;1.20;;;24.30;61.30;;;;;;4881823;29;20045;-64
2021/07/18 12:14:56;;;;;;;2.28;1.17;;;24.30;61.30;;;;;;4882131;29;20038;-63
2021/07/18 12:17:22;;;;;;;3.95;1.05;;;24.40;61.20;;;;;;4882391;29;20157;-64
2021/07/18 12:19:48;;;;;;;2.35;0.93;;;24.40;61.20;;;;;;4882966;29;20069;-63
2021/07/18 12:22:19;;;;;;;2.10;1.00;;;24.40;61.10;;;;;;4881795;29;20029;-63
2021/07/18 12:24:50;;;;;;;2.28;1.27;;;24.40;61.10;;;;;;4881591;29;20025;-63
2021/07/18 12:27:29;;;;;;;2.50;1.25;;;24.50;61.10;;;;;;4881422;29;20476;-63
2021/07/18 12:29:57;;;;;;;2.28;1.02;;;24.50;61.00;;;;;;4881097;29;20040;-63
2021/07/18 12:32:27;;;;;;;2.00;1.20;;;24.50;61.00;;;;;;4880782;29;20029;-64
2021/07/18 12:34:55;;;;;;;2.47;1.20;;;24.50;60.90;;;;;;4881370;29;20033;-63
2021/07/18 12:37:22;;;;;;;2.42;1.08;;;24.60;61.00;;;;;;4881083;29;20393;-63
2021/07/18 12:39:59;;;;;;;2.20;1.27;;;24.60;60.90;;;;;;4881593;29;20129;-63
2021/07/18 12:42:33;;;;;;;2.45;1.10;;;24.70;60.90;;;;;;4880781;29;20033;-64
2021/07/18 12:45:03;;;;;;;2.22;1.08;;;24.70;60.80;;;;;;4880843;29;20377;-63
2021/07/18 12:47:34;;;;;;;2.00;1.27;;;24.70;60.80;;;;;;4880639;29;20048;-64
2021/07/18 12:50:23;;;;;;;1.95;1.20;;;24.80;60.70;;;;;;4879325;29;20021;-64